createdAt,value
2023-06-23T00:01:05.434Z,62.50
2023-06-23T00:03:33.060Z,62.67
2023-06-23T00:06:04.961Z,63.48
2023-06-23T00:08:32.508Z,63.06
2023-06-23T00:11:00.165Z,63.18
2023-06-23T00:13:28.391Z,62.92
2023-06-23T00:15:55.955Z,63.11
2023-06-23T00:18:23.578Z,62.64
2023-06-23T00:20:51.136Z,62.79
2023-06-23T00:23:20.038Z,63.03
2023-06-23T00:25:47.792Z,62.56
2023-06-23T00:28:15.578Z,63.21
2023-06-23T00:30:43.199Z,62.99
2023-06-23T00:33:10.798Z,63.33
2023-06-23T00:35:38.540Z,63.00
2023-06-23T00:38:06.152Z,62.93
2023-06-23T00:40:35.375Z,63.08
2023-06-23T00:43:02.977Z,63.02
2023-06-23T00:45:30.866Z,62.93
2023-06-23T00:47:58.786Z,62.73
2023-06-23T00:50:27.292Z,62.44
2023-06-23T00:52:55.409Z,62.86
2023-06-23T00:55:24.170Z,62.89
2023-06-23T00:57:55.366Z,63.04
2023-06-23T01:00:24.853Z,62.93
2023-06-23T01:02:54.808Z,62.86
2023-06-23T01:05:25.925Z,63.21
2023-06-23T01:08:04.909Z,63.73
2023-06-23T01:10:37.770Z,63.32
2023-06-23T01:13:17.625Z,63.73
2023-06-23T01:15:52.119Z,64.06
2023-06-23T01:18:28.518Z,64.62
2023-06-23T01:21:02.297Z,63.90
2023-06-23T01:23:58.130Z,64.88
2023-06-23T01:26:56.525Z,65.35
2023-06-23T01:29:30.136Z,65.58
2023-06-23T01:32:02.925Z,65.74
2023-06-23T01:34:37.328Z,65.87
2023-06-23T01:37:10.913Z,66.31
2023-06-23T01:39:41.845Z,66.34
2023-06-23T01:42:14.929Z,65.96
2023-06-23T01:44:49.428Z,66.54
2023-06-23T01:47:19.458Z,66.20
2023-06-23T01:49:49.646Z,66.29
2023-06-23T01:52:19.185Z,66.35
2023-06-23T01:54:47.713Z,66.86
2023-06-23T01:57:18.219Z,66.56
2023-06-23T01:59:48.668Z,66.56
2023-06-23T02:02:18.211Z,66.67
2023-06-23T02:04:48.926Z,66.00
2023-06-23T02:07:19.120Z,66.55
2023-06-23T02:09:47.770Z,66.74
2023-06-23T02:12:17.896Z,67.27
2023-06-23T02:14:49.181Z,66.98
2023-06-23T02:17:17.225Z,66.91
2023-06-23T02:19:47.819Z,66.83
2023-06-23T02:22:28.378Z,66.77
2023-06-23T02:24:57.454Z,66.98
2023-06-23T02:27:26.218Z,67.72
2023-06-23T02:29:55.782Z,70.67
2023-06-23T02:32:26.581Z,70.63
2023-06-23T02:34:54.303Z,68.59
2023-06-23T02:37:25.882Z,68.31
2023-06-23T02:39:57.830Z,66.67
2023-06-23T02:42:32.675Z,66.47
2023-06-23T02:45:05.443Z,66.37
2023-06-23T02:47:38.672Z,66.93
2023-06-23T02:50:11.283Z,66.33
2023-06-23T02:52:42.525Z,66.86
2023-06-23T02:55:11.459Z,67.87
2023-06-23T02:57:39.838Z,67.78
2023-06-23T03:00:14.171Z,67.69
2023-06-23T03:02:44.441Z,67.76
2023-06-23T03:05:12.397Z,67.32
2023-06-23T03:07:40.328Z,66.28
2023-06-23T03:10:08.853Z,66.98
2023-06-23T03:12:36.752Z,67.07
2023-06-23T03:15:04.827Z,67.26
2023-06-23T03:17:35.456Z,67.77
2023-06-23T03:20:09.265Z,67.75
2023-06-23T03:22:41.379Z,67.04
2023-06-23T03:25:16.301Z,66.92
2023-06-23T03:27:45.516Z,67.51
2023-06-23T03:30:18.934Z,67.72
2023-06-23T03:32:51.296Z,67.53
2023-06-23T03:35:22.637Z,66.80
2023-06-23T03:37:52.905Z,67.06
2023-06-23T03:40:24.193Z,67.01
2023-06-23T03:42:55.775Z,67.25
2023-06-23T03:45:26.464Z,67.38
2023-06-23T03:48:01.029Z,66.94
2023-06-23T03:50:32.190Z,67.53
2023-06-23T03:53:02.863Z,67.70
2023-06-23T03:55:33.349Z,68.69
2023-06-23T03:58:04.482Z,68.81
2023-06-23T04:00:34.006Z,68.12
2023-06-23T04:03:07.084Z,68.36
2023-06-23T04:05:37.134Z,67.75
2023-06-23T04:08:06.303Z,68.10
2023-06-23T04:10:35.772Z,68.22
2023-06-23T04:13:04.845Z,67.78
2023-06-23T04:15:35.918Z,67.38
2023-06-23T04:18:07.646Z,67.42
2023-06-23T04:20:36.474Z,66.96
2023-06-23T04:23:06.527Z,66.68
2023-06-23T04:25:34.362Z,66.39
2023-06-23T04:28:06.166Z,66.30
2023-06-23T04:30:36.542Z,66.25
2023-06-23T04:33:05.808Z,65.68
2023-06-23T04:35:33.860Z,66.17
2023-06-23T04:38:04.605Z,66.09
2023-06-23T04:40:37.118Z,65.63
2023-06-23T04:43:10.565Z,65.99
2023-06-23T04:45:42.651Z,65.95
2023-06-23T04:48:14.702Z,65.94
2023-06-23T04:50:44.635Z,66.76
2023-06-23T04:53:17.810Z,65.76
2023-06-23T04:55:49.927Z,66.04
2023-06-23T04:58:19.235Z,65.21
2023-06-23T05:00:49.040Z,65.34
2023-06-23T05:03:20.481Z,65.41
2023-06-23T05:05:52.072Z,65.34
2023-06-23T05:08:20.292Z,64.94
2023-06-23T05:10:48.588Z,65.47
2023-06-23T05:13:18.494Z,66.39
2023-06-23T05:15:48.116Z,65.41
2023-06-23T05:18:18.863Z,64.96
2023-06-23T05:20:48.230Z,65.19
2023-06-23T05:23:19.470Z,64.92
2023-06-23T05:25:51.482Z,64.05
2023-06-23T05:28:21.771Z,63.75
2023-06-23T05:30:50.688Z,63.53
2023-06-23T05:33:21.024Z,63.57
2023-06-23T05:35:50.253Z,63.63
2023-06-23T05:38:20.548Z,63.76
2023-06-23T05:40:48.219Z,63.39
2023-06-23T05:43:15.884Z,63.23
2023-06-23T05:45:43.567Z,63.43
2023-06-23T05:48:17.815Z,62.43
2023-06-23T05:50:49.183Z,62.45
2023-06-23T05:53:20.831Z,62.70
2023-06-23T05:56:03.842Z,61.48
2023-06-23T05:58:35.711Z,62.39
2023-06-23T06:01:09.331Z,61.81
2023-06-23T06:03:40.098Z,61.89
2023-06-23T06:06:09.723Z,60.96
2023-06-23T06:08:40.150Z,60.71
2023-06-23T06:11:10.472Z,60.84
2023-06-23T06:13:43.119Z,61.05
2023-06-23T06:16:12.690Z,60.65
2023-06-23T06:18:41.684Z,60.48
2023-06-23T06:21:12.530Z,59.82
2023-06-23T06:23:41.434Z,60.97
2023-06-23T06:26:10.986Z,61.23
2023-06-23T06:28:40.756Z,61.04
2023-06-23T06:31:09.833Z,60.50
2023-06-23T06:33:39.438Z,61.06
2023-06-23T06:36:10.963Z,59.90
2023-06-23T06:38:39.715Z,60.09
2023-06-23T06:41:09.006Z,61.29
2023-06-23T06:43:37.399Z,61.12
2023-06-23T06:46:08.131Z,60.50
2023-06-23T06:48:36.699Z,61.01
2023-06-23T06:51:06.428Z,61.90
2023-06-23T06:53:35.650Z,60.72
2023-06-23T06:56:03.566Z,59.84
2023-06-23T06:58:31.728Z,59.39
2023-06-23T07:01:00.265Z,58.31
2023-06-23T07:03:29.051Z,57.93
2023-06-23T07:05:56.691Z,57.52
2023-06-23T07:08:24.345Z,56.91
2023-06-23T07:10:53.258Z,59.24
2023-06-23T07:13:20.826Z,58.96
2023-06-23T07:15:48.587Z,58.11
2023-06-23T07:18:16.683Z,58.44
2023-06-23T07:20:44.581Z,56.52
2023-06-23T07:23:12.276Z,58.46
2023-06-23T07:25:39.979Z,58.66
2023-06-23T07:28:08.982Z,58.35
2023-06-23T07:30:38.813Z,58.94
2023-06-23T07:33:06.522Z,58.03
2023-06-23T07:35:34.317Z,57.71
2023-06-23T07:38:02.638Z,56.74
2023-06-23T07:40:30.498Z,56.53
2023-06-23T07:42:58.223Z,56.23
2023-06-23T07:45:27.109Z,57.29
2023-06-23T07:47:54.683Z,56.66
2023-06-23T07:50:22.313Z,56.80
2023-06-23T07:52:54.511Z,56.26
2023-06-23T07:55:22.222Z,56.15
2023-06-23T07:57:50.721Z,57.07
2023-06-23T08:00:19.201Z,55.11
2023-06-23T08:02:48.170Z,55.03
2023-06-23T08:05:15.889Z,55.02
2023-06-23T08:07:45.853Z,55.23
2023-06-23T08:10:14.105Z,53.71
2023-06-23T08:12:41.812Z,54.40
2023-06-23T08:15:10.539Z,54.08
2023-06-23T08:17:38.398Z,53.82
2023-06-23T08:20:08.749Z,52.77
2023-06-23T08:22:36.289Z,52.33
2023-06-23T08:25:05.289Z,52.94
2023-06-23T08:27:32.899Z,52.43
2023-06-23T08:30:00.564Z,53.01
2023-06-23T08:32:28.147Z,51.51
2023-06-23T08:34:55.779Z,52.39
2023-06-23T08:37:24.750Z,51.82
2023-06-23T08:39:52.419Z,52.03
2023-06-23T08:42:21.299Z,51.13
2023-06-23T08:44:50.686Z,51.54
2023-06-23T08:47:22.099Z,51.60
2023-06-23T08:49:50.520Z,49.86
2023-06-23T08:52:18.553Z,48.07
2023-06-23T08:54:47.601Z,48.73
2023-06-23T08:57:15.437Z,49.67
2023-06-23T08:59:43.078Z,50.06
2023-06-23T09:02:10.678Z,49.51
2023-06-23T09:04:38.306Z,48.96
2023-06-23T09:07:06.724Z,48.70
2023-06-23T09:09:35.252Z,48.72
2023-06-23T09:12:05.107Z,48.16
2023-06-23T09:14:33.862Z,48.90
2023-06-23T09:17:02.139Z,48.91
2023-06-23T09:19:31.240Z,49.01
2023-06-23T09:21:59.319Z,49.46
2023-06-23T09:24:40.237Z,49.27
2023-06-23T09:27:09.433Z,49.28
2023-06-23T09:29:38.370Z,48.60
2023-06-23T09:32:07.211Z,48.05
2023-06-23T09:34:35.644Z,47.30
2023-06-23T09:37:10.440Z,47.69
2023-06-23T09:39:39.389Z,46.65
2023-06-23T09:42:13.014Z,47.53
2023-06-23T09:44:42.261Z,47.74
2023-06-23T09:47:10.391Z,47.32
2023-06-23T09:49:41.742Z,46.83
2023-06-23T09:52:11.146Z,44.91
2023-06-23T09:54:40.611Z,44.50
2023-06-23T09:57:10.852Z,42.88
2023-06-23T09:59:40.092Z,43.59
2023-06-23T10:02:08.161Z,42.44
2023-06-23T10:04:36.628Z,42.64
2023-06-23T10:07:21.261Z,43.74
2023-06-23T10:09:57.051Z,44.15
2023-06-23T10:12:33.287Z,44.80
2023-06-23T10:15:00.984Z,45.49
2023-06-23T10:17:28.589Z,44.36
2023-06-23T10:19:57.220Z,43.45
2023-06-23T10:22:25.086Z,42.01
2023-06-23T10:24:54.095Z,42.27
2023-06-23T10:27:24.840Z,41.38
2023-06-23T10:29:55.744Z,41.41
2023-06-23T10:32:25.022Z,40.91
2023-06-23T10:34:53.858Z,40.60
2023-06-23T10:37:35.279Z,40.57
2023-06-23T10:40:15.268Z,40.57
2023-06-23T10:42:45.216Z,40.41
2023-06-23T10:45:14.270Z,41.08
2023-06-23T10:47:42.367Z,42.78
2023-06-23T10:50:11.743Z,43.59
2023-06-23T10:52:39.436Z,42.34
2023-06-23T10:55:36.024Z,40.81
2023-06-23T10:58:11.255Z,40.81
2023-06-23T11:00:40.150Z,41.15
2023-06-23T11:03:10.666Z,38.91
2023-06-23T11:05:43.367Z,38.94
2023-06-23T11:08:13.348Z,38.82
2023-06-23T11:10:48.944Z,39.02
2023-06-23T11:13:16.817Z,39.78
2023-06-23T11:15:54.150Z,38.86
2023-06-23T11:18:23.002Z,38.62
2023-06-23T11:20:51.925Z,38.73
2023-06-23T11:23:20.300Z,39.54
2023-06-23T11:25:49.395Z,39.04
2023-06-23T11:28:31.107Z,37.42
2023-06-23T11:31:14.409Z,36.01
2023-06-23T11:33:43.729Z,35.59
2023-06-23T11:36:13.155Z,35.91
2023-06-23T11:38:42.454Z,35.70
2023-06-23T11:41:10.599Z,34.57
2023-06-23T11:43:39.648Z,35.75
2023-06-23T11:46:12.917Z,35.15
2023-06-23T11:48:41.339Z,36.50
2023-06-23T11:51:10.438Z,34.96
2023-06-23T11:53:41.270Z,34.52
2023-06-23T11:56:09.865Z,34.19
2023-06-23T11:58:37.938Z,34.04
2023-06-23T12:01:05.710Z,35.71
2023-06-23T12:03:36.331Z,34.16
2023-06-23T12:06:04.156Z,34.16
2023-06-23T12:08:31.758Z,33.42
2023-06-23T12:10:59.325Z,33.04
2023-06-23T12:13:27.178Z,33.73
2023-06-23T12:15:58.966Z,34.10
2023-06-23T12:18:26.729Z,33.01
2023-06-23T12:20:55.710Z,32.98
2023-06-23T12:23:23.725Z,31.55
2023-06-23T12:25:52.018Z,30.86
2023-06-23T12:28:21.008Z,31.62
2023-06-23T12:30:50.946Z,32.88
2023-06-23T12:33:21.536Z,32.48
2023-06-23T12:36:01.623Z,32.67
2023-06-23T12:38:30.224Z,33.12
2023-06-23T12:41:14.937Z,33.02
2023-06-23T12:43:43.395Z,32.51
2023-06-23T12:46:12.365Z,31.53
2023-06-23T12:48:40.825Z,31.66
2023-06-23T12:51:09.859Z,33.45
2023-06-23T12:53:37.755Z,32.99
2023-06-23T12:56:05.632Z,32.49
2023-06-23T12:58:33.162Z,31.16
2023-06-23T13:01:03.498Z,30.96
2023-06-23T13:03:31.122Z,30.60
2023-06-23T13:05:59.847Z,30.41
2023-06-23T13:08:29.086Z,30.59
2023-06-23T13:10:56.669Z,30.56
2023-06-23T13:13:24.249Z,30.58
2023-06-23T13:15:52.282Z,29.09
2023-06-23T13:18:19.902Z,29.35
2023-06-23T13:20:47.488Z,28.21
2023-06-23T13:23:15.110Z,29.83
2023-06-23T13:25:44.359Z,29.58
2023-06-23T13:28:12.010Z,29.95
2023-06-23T13:30:39.529Z,29.29
2023-06-23T13:33:07.419Z,29.50
2023-06-23T13:35:35.619Z,29.26
2023-06-23T13:38:03.459Z,29.61
2023-06-23T13:40:31.106Z,28.52
2023-06-23T13:43:00.742Z,29.09
2023-06-23T13:45:28.941Z,28.30
2023-06-23T13:47:56.627Z,28.36
2023-06-23T13:50:24.236Z,27.33
2023-06-23T13:52:51.806Z,27.51
2023-06-23T13:55:19.409Z,26.02
2023-06-23T13:57:47.160Z,26.29
2023-06-23T14:00:17.041Z,27.16
2023-06-23T14:02:44.678Z,26.70
2023-06-23T14:05:15.163Z,26.07
2023-06-23T14:07:42.956Z,26.13
2023-06-23T14:10:11.219Z,25.55
2023-06-23T14:12:38.778Z,25.04
2023-06-23T14:15:07.911Z,25.80
2023-06-23T14:17:36.900Z,25.44
2023-06-23T14:20:05.611Z,24.95
2023-06-23T14:22:33.173Z,25.38
2023-06-23T14:25:00.735Z,24.74
2023-06-23T14:27:29.150Z,24.25
2023-06-23T14:29:57.127Z,23.35
2023-06-23T14:32:24.856Z,24.71
2023-06-23T14:34:53.894Z,25.22
2023-06-23T14:37:21.437Z,25.61
2023-06-23T14:39:49.013Z,25.27
2023-06-23T14:42:16.614Z,27.21
2023-06-23T14:44:44.172Z,27.09
2023-06-23T14:47:11.752Z,26.35
2023-06-23T14:49:39.390Z,26.51
2023-06-23T14:52:08.603Z,27.37
2023-06-23T14:54:36.278Z,27.33
2023-06-23T14:57:03.903Z,28.23
2023-06-23T14:59:31.508Z,28.65
2023-06-23T15:01:59.099Z,28.84
2023-06-23T15:04:26.973Z,29.01
2023-06-23T15:06:54.649Z,28.63
2023-06-23T15:09:23.618Z,28.19
2023-06-23T15:11:51.231Z,27.31
2023-06-23T15:14:19.254Z,26.55
2023-06-23T15:16:46.811Z,26.04
2023-06-23T15:19:14.532Z,25.98
2023-06-23T15:21:42.126Z,24.98
2023-06-23T15:24:09.962Z,25.03
2023-06-23T15:26:38.969Z,25.56
2023-06-23T15:29:07.742Z,25.06
2023-06-23T15:31:35.468Z,24.25
2023-06-23T15:34:03.083Z,23.84
2023-06-23T15:36:32.684Z,23.93
2023-06-23T15:39:01.576Z,23.90
2023-06-23T15:41:29.126Z,23.88
2023-06-23T15:43:58.041Z,23.69
2023-06-23T15:46:25.609Z,23.33
2023-06-23T15:48:53.180Z,23.33
2023-06-23T15:51:23.152Z,22.36
2023-06-23T15:53:50.776Z,22.14
2023-06-23T15:56:18.458Z,21.76
2023-06-23T15:58:46.056Z,21.12
2023-06-23T16:01:15.192Z,21.17
2023-06-23T16:03:43.031Z,21.32
2023-06-23T16:06:10.759Z,21.89
2023-06-23T16:08:38.342Z,21.79
2023-06-23T16:11:07.853Z,21.07
2023-06-23T16:13:37.341Z,21.31
2023-06-23T16:16:05.665Z,20.91
2023-06-23T16:18:34.723Z,20.60
2023-06-23T16:21:02.332Z,21.20
2023-06-23T16:23:29.901Z,21.18
2023-06-23T16:25:57.871Z,21.34
2023-06-23T16:28:25.518Z,21.59
2023-06-23T16:30:54.376Z,21.60
2023-06-23T16:33:22.061Z,21.71
2023-06-23T16:35:50.996Z,21.88
2023-06-23T16:38:18.572Z,22.55
2023-06-23T16:40:46.371Z,22.64
2023-06-23T16:43:14.254Z,22.84
2023-06-23T16:45:41.933Z,22.78
2023-06-23T16:48:09.545Z,23.26
2023-06-23T16:50:38.041Z,23.57
2023-06-23T16:53:08.920Z,23.03
2023-06-23T16:55:36.566Z,23.14
2023-06-23T16:58:04.231Z,23.29
2023-06-23T17:00:33.297Z,23.70
2023-06-23T17:03:01.199Z,23.58
2023-06-23T17:05:28.907Z,23.63
2023-06-23T17:07:56.504Z,23.67
2023-06-23T17:10:25.580Z,23.93
2023-06-23T17:12:53.376Z,23.42
2023-06-23T17:15:21.306Z,23.52
2023-06-23T17:17:48.995Z,23.60
2023-06-23T17:20:16.829Z,23.62
2023-06-23T17:22:44.438Z,23.87
2023-06-23T17:25:13.143Z,23.56
2023-06-23T17:27:42.121Z,23.54
2023-06-23T17:30:10.394Z,23.71
2023-06-23T17:32:38.170Z,23.69
2023-06-23T17:35:06.535Z,23.89
2023-06-23T17:37:34.296Z,23.72
2023-06-23T17:40:01.852Z,23.50
2023-06-23T17:42:29.532Z,23.64
2023-06-23T17:44:58.459Z,24.32
2023-06-23T17:47:27.108Z,24.24
2023-06-23T17:49:55.052Z,24.62
2023-06-23T17:52:22.846Z,24.28
2023-06-23T17:54:50.434Z,24.40
2023-06-23T17:57:18.999Z,25.28
2023-06-23T17:59:46.547Z,25.86
2023-06-23T18:02:21.024Z,26.48
2023-06-23T18:04:49.130Z,27.06
2023-06-23T18:07:17.232Z,27.80
2023-06-23T18:09:45.013Z,27.62
2023-06-23T18:12:12.555Z,27.55
2023-06-23T18:14:40.174Z,28.59
2023-06-23T18:17:07.915Z,28.70
2023-06-23T18:19:36.826Z,28.87
2023-06-23T18:22:04.787Z,30.29
2023-06-23T18:24:32.399Z,31.25
2023-06-23T18:26:59.966Z,30.66
2023-06-23T18:29:28.279Z,30.64
2023-06-23T18:32:13.533Z,32.70
2023-06-23T18:34:43.000Z,35.01
2023-06-23T18:37:12.053Z,36.44
2023-06-23T18:39:39.608Z,36.90
2023-06-23T18:42:07.979Z,37.31
2023-06-23T18:44:36.299Z,37.83
2023-06-23T18:47:04.239Z,37.99
2023-06-23T18:49:32.133Z,38.09
2023-06-23T18:52:01.160Z,38.60
2023-06-23T18:54:28.745Z,38.49
2023-06-23T18:56:58.581Z,37.57
2023-06-23T18:59:27.496Z,38.56
2023-06-23T19:01:55.316Z,39.17
2023-06-23T19:04:23.006Z,39.46
2023-06-23T19:06:51.070Z,39.46
2023-06-23T19:09:20.100Z,39.82
2023-06-23T19:11:47.647Z,39.95
2023-06-23T19:14:15.323Z,40.47
2023-06-23T19:16:42.901Z,40.75
2023-06-23T19:19:10.462Z,41.03
2023-06-23T19:21:38.168Z,41.61
2023-06-23T19:24:06.643Z,42.90
2023-06-23T19:26:35.697Z,42.46
2023-06-23T19:29:03.878Z,41.61
2023-06-23T19:31:31.524Z,41.50
2023-06-23T19:33:59.164Z,41.51
2023-06-23T19:36:26.757Z,41.69
2023-06-23T19:38:54.371Z,42.16
2023-06-23T19:41:21.983Z,42.63
2023-06-23T19:43:51.016Z,42.05
2023-06-23T19:46:18.638Z,44.18
2023-06-23T19:48:46.316Z,44.70
2023-06-23T19:51:13.837Z,44.78
2023-06-23T19:53:42.894Z,46.49
2023-06-23T19:56:10.546Z,47.32
2023-06-23T19:58:38.213Z,46.73
2023-06-23T20:01:07.197Z,46.05
2023-06-23T20:03:34.939Z,46.56
2023-06-23T20:06:02.679Z,47.06
2023-06-23T20:08:30.372Z,46.76
2023-06-23T20:10:57.911Z,46.47
2023-06-23T20:13:25.482Z,46.23
2023-06-23T20:15:53.071Z,46.40
2023-06-23T20:18:22.035Z,46.45
2023-06-23T20:20:50.023Z,46.39
2023-06-23T20:23:17.594Z,45.82
2023-06-23T20:25:45.234Z,46.01
2023-06-23T20:28:14.282Z,46.43
2023-06-23T20:30:41.877Z,46.52
2023-06-23T20:33:09.464Z,46.43
2023-06-23T20:35:38.508Z,47.43
2023-06-23T20:38:06.037Z,47.83
2023-06-23T20:40:33.851Z,47.57
2023-06-23T20:43:01.970Z,47.50
2023-06-23T20:45:29.519Z,47.68
2023-06-23T20:47:57.952Z,47.37
2023-06-23T20:50:25.618Z,46.97
2023-06-23T20:52:54.497Z,47.02
2023-06-23T20:55:22.067Z,47.11
2023-06-23T20:57:49.655Z,46.95
2023-06-23T21:00:18.118Z,46.76
2023-06-23T21:02:45.750Z,46.67
2023-06-23T21:05:13.385Z,46.60
2023-06-23T21:07:40.916Z,47.24
2023-06-23T21:12:43.581Z,48.00
2023-06-23T21:15:11.148Z,48.68
2023-06-23T21:20:10.286Z,49.38
2023-06-23T21:22:38.285Z,49.72
2023-06-23T21:25:06.376Z,49.38
2023-06-23T21:27:35.372Z,49.26
2023-06-23T21:30:04.535Z,49.55
2023-06-23T21:32:32.467Z,49.22
2023-06-23T21:35:00.056Z,49.10
2023-06-23T21:37:27.713Z,48.64
2023-06-23T21:39:55.435Z,48.96
2023-06-23T21:42:24.318Z,49.29
2023-06-23T21:44:53.597Z,49.08
2023-06-23T21:47:21.186Z,49.62
2023-06-23T21:49:48.923Z,49.89
2023-06-23T21:52:16.608Z,49.88
2023-06-23T21:54:45.467Z,50.35
2023-06-23T21:57:13.002Z,50.30
2023-06-23T21:59:40.581Z,50.71
2023-06-23T22:02:09.589Z,50.94
2023-06-23T22:04:37.238Z,51.47
2023-06-23T22:07:05.327Z,51.05
2023-06-23T22:09:33.112Z,51.05
2023-06-23T22:12:00.682Z,51.61
2023-06-23T22:14:28.313Z,51.54
2023-06-23T22:16:56.140Z,51.50
2023-06-23T22:19:25.154Z,51.17
2023-06-23T22:21:53.394Z,51.87
2023-06-23T22:24:20.941Z,52.26
2023-06-23T22:26:48.509Z,51.81
2023-06-23T22:29:16.930Z,52.15
2023-06-23T22:31:44.950Z,53.36
2023-06-23T22:34:12.580Z,52.82
2023-06-23T22:36:41.633Z,52.60
2023-06-23T22:39:09.250Z,52.54
2023-06-23T22:41:36.894Z,52.45
2023-06-23T22:44:04.934Z,52.06
2023-06-23T22:46:32.508Z,52.26
2023-06-23T22:49:00.115Z,52.75
2023-06-23T22:51:32.406Z,52.52
2023-06-23T22:54:01.456Z,52.54
2023-06-23T22:56:29.044Z,52.07
2023-06-23T22:58:56.624Z,52.49
2023-06-23T23:01:25.168Z,52.16
2023-06-23T23:03:52.892Z,52.25
2023-06-23T23:06:20.668Z,52.37
2023-06-23T23:08:49.561Z,52.81
2023-06-23T23:11:18.588Z,53.15
2023-06-23T23:13:46.150Z,53.22
2023-06-23T23:16:15.182Z,53.49
2023-06-23T23:18:44.531Z,53.58
2023-06-23T23:21:12.586Z,53.89
2023-06-23T23:23:40.432Z,54.06
2023-06-23T23:26:09.882Z,53.71
2023-06-23T23:28:43.266Z,53.19
2023-06-23T23:31:12.356Z,52.96
2023-06-23T23:33:40.754Z,53.09
2023-06-23T23:36:08.666Z,53.50
2023-06-23T23:38:36.201Z,53.93
2023-06-23T23:41:03.877Z,54.19
2023-06-23T23:43:31.493Z,54.49
2023-06-23T23:46:00.461Z,54.68
2023-06-23T23:48:28.304Z,54.58
2023-06-23T23:50:55.869Z,53.99
2023-06-23T23:53:23.453Z,53.94
2023-06-23T23:55:51.038Z,53.81
2023-06-23T23:58:18.742Z,55.32
